Terminal Aerodrome Forecast
Issued by NWS

Current Version | Previous Version | Graphics & Text | Print | Product List | Glossary On
Versions: 1 2 3 4 5 6 7 8 9 10 11 12 13 14 15 16 17
000
FTUS41 KILN 161133
TAFLCK
TAF
KLCK 161133Z 1612/1712 00000KT P6SM BKN250
     FM161400 15005KT P6SM SCT250
     FM161800 16005KT P6SM BKN050
     FM170900 13005KT P6SM VCTS BKN060CB=

USA.gov is the U.S. government's official web portal to all federal, state and local government web resources and services.